createdAt,value
2023-03-28T00:02:15.549Z,91.88
2023-03-28T00:04:42.595Z,91.57
2023-03-28T00:07:09.692Z,91.61
2023-03-28T00:09:37.639Z,91.50
2023-03-28T00:12:04.985Z,91.01
2023-03-28T00:14:32.036Z,91.02
2023-03-28T00:17:02.080Z,90.37
2023-03-28T00:19:33.284Z,90.69
2023-03-28T00:22:00.389Z,91.45
2023-03-28T00:24:28.138Z,90.71
2023-03-28T00:26:55.255Z,91.11
2023-03-28T00:29:23.319Z,90.58
2023-03-28T00:31:51.649Z,89.40
2023-03-28T00:34:18.944Z,89.61
2023-03-28T00:36:46.117Z,89.59
2023-03-28T00:39:13.587Z,89.55
2023-03-28T00:41:43.642Z,90.28
2023-03-28T00:44:47.681Z,89.08
2023-03-28T00:47:36.908Z,89.17
2023-03-28T00:50:07.289Z,89.44
2023-03-28T00:53:29.568Z,89.42
2023-03-28T00:56:02.495Z,89.64
2023-03-28T00:58:33.820Z,89.89
2023-03-28T01:01:01.605Z,89.63
2023-03-28T01:03:34.734Z,88.49
2023-03-28T01:06:06.411Z,88.70
2023-03-28T01:08:41.304Z,88.71
2023-03-28T01:11:11.554Z,88.15
2023-03-28T01:13:44.237Z,86.40
2023-03-28T01:16:21.209Z,86.54
2023-03-28T01:18:52.900Z,87.35
2023-03-28T01:21:40.091Z,87.28
2023-03-28T01:24:34.603Z,88.40
2023-03-28T01:27:01.585Z,87.39
2023-03-28T01:29:45.332Z,87.37
2023-03-28T01:32:35.943Z,88.09
2023-03-28T01:35:29.295Z,87.52
2023-03-28T01:38:33.244Z,87.25
2023-03-28T01:41:06.514Z,88.08
2023-03-28T01:44:34.187Z,87.04
2023-03-28T01:47:31.038Z,85.22
2023-03-28T01:50:09.001Z,85.04
2023-03-28T01:52:46.083Z,84.10
2023-03-28T01:55:21.949Z,82.10
2023-03-28T01:58:05.655Z,82.00
2023-03-28T02:00:46.172Z,83.38
2023-03-28T02:03:36.710Z,83.47
2023-03-28T02:06:15.259Z,84.61
2023-03-28T02:08:46.506Z,83.26
2023-03-28T02:11:19.490Z,83.34
2023-03-28T02:14:02.484Z,83.86
2023-03-28T02:17:33.723Z,84.82
2023-03-28T02:20:12.624Z,84.10
2023-03-28T02:23:07.886Z,83.51
2023-03-28T02:25:55.244Z,83.92
2023-03-28T02:28:45.129Z,84.51
2023-03-28T02:31:28.123Z,84.78
2023-03-28T02:33:56.865Z,83.96
2023-03-28T02:36:31.844Z,83.29
2023-03-28T02:39:07.642Z,84.49
2023-03-28T02:41:49.412Z,84.67
2023-03-28T02:44:45.401Z,84.02
2023-03-28T02:47:19.637Z,85.00
2023-03-28T02:49:50.660Z,85.24
2023-03-28T02:52:35.216Z,84.72
2023-03-28T02:55:10.287Z,84.89
2023-03-28T02:58:00.560Z,84.15
2023-03-28T03:00:27.826Z,84.31
2023-03-28T03:02:55.024Z,83.86
2023-03-28T03:05:22.642Z,83.87
2023-03-28T03:07:50.630Z,83.30
2023-03-28T03:10:18.271Z,82.19
2023-03-28T03:12:47.487Z,82.45
2023-03-28T03:15:17.291Z,82.53
2023-03-28T03:17:53.863Z,81.29
2023-03-28T03:20:26.932Z,81.33
2023-03-28T03:22:55.220Z,80.70
2023-03-28T03:25:22.443Z,80.49
2023-03-28T03:27:56.213Z,80.28
2023-03-28T03:30:23.772Z,80.01
2023-03-28T03:33:17.004Z,80.68
2023-03-28T03:35:46.950Z,80.12
2023-03-28T03:38:15.928Z,80.40
2023-03-28T03:40:42.925Z,80.22
2023-03-28T03:43:11.364Z,80.92
2023-03-28T03:45:40.843Z,81.34
2023-03-28T03:48:09.418Z,80.64
2023-03-28T03:50:37.737Z,81.08
2023-03-28T03:53:11.700Z,80.32
2023-03-28T03:55:46.944Z,81.30
2023-03-28T03:58:14.142Z,81.05
2023-03-28T04:00:44.814Z,80.60
2023-03-28T04:03:27.204Z,81.32
2023-03-28T04:05:56.504Z,80.87
2023-03-28T04:08:24.036Z,81.51
2023-03-28T04:10:51.219Z,80.87
2023-03-28T04:13:18.267Z,80.64
2023-03-28T04:15:51.887Z,80.50
2023-03-28T04:18:21.961Z,81.01
2023-03-28T04:20:55.362Z,80.43
2023-03-28T04:23:43.762Z,80.24
2023-03-28T04:26:30.125Z,80.76
2023-03-28T04:29:05.350Z,79.58
2023-03-28T04:31:39.076Z,80.04
2023-03-28T04:34:30.262Z,80.43
2023-03-28T04:37:18.111Z,79.23
2023-03-28T04:39:54.345Z,79.00
2023-03-28T04:42:47.109Z,78.60
2023-03-28T04:45:40.281Z,78.82
2023-03-28T04:48:14.812Z,78.60
2023-03-28T04:50:43.563Z,78.38
2023-03-28T04:53:14.224Z,79.04
2023-03-28T04:56:00.342Z,79.20
2023-03-28T04:58:29.173Z,78.97
2023-03-28T05:00:56.475Z,78.42
2023-03-28T05:03:42.463Z,78.79
2023-03-28T05:06:09.804Z,78.89
2023-03-28T05:08:37.294Z,79.29
2023-03-28T05:11:04.616Z,79.92
2023-03-28T05:13:31.633Z,78.71
2023-03-28T05:16:09.380Z,78.69
2023-03-28T05:18:59.067Z,79.78
2023-03-28T05:21:46.513Z,79.00
2023-03-28T05:24:13.563Z,79.05
2023-03-28T05:26:40.626Z,78.72
2023-03-28T05:29:08.894Z,77.89
2023-03-28T05:31:35.976Z,79.68
2023-03-28T05:34:17.059Z,77.64
2023-03-28T05:36:47.070Z,78.54
2023-03-28T05:39:26.682Z,77.48
2023-03-28T05:42:00.690Z,78.55
2023-03-28T05:44:27.855Z,78.81
2023-03-28T05:47:14.828Z,78.20
2023-03-28T05:49:41.921Z,77.71
2023-03-28T05:52:10.559Z,78.61
2023-03-28T05:54:38.847Z,78.48
2023-03-28T05:57:06.380Z,77.52
2023-03-28T05:59:33.438Z,79.19
2023-03-28T06:02:03.488Z,77.87
2023-03-28T06:04:30.789Z,78.55
2023-03-28T06:06:57.963Z,78.69
2023-03-28T06:09:27.257Z,77.79
2023-03-28T06:11:59.031Z,78.00
2023-03-28T06:14:26.926Z,78.64
2023-03-28T06:16:56.896Z,78.13
2023-03-28T06:19:26.431Z,77.70
2023-03-28T06:21:55.508Z,77.53
2023-03-28T06:24:22.829Z,78.66
2023-03-28T06:26:50.540Z,78.01
2023-03-28T06:29:21.916Z,79.26
2023-03-28T06:31:53.074Z,78.41
2023-03-28T06:34:21.235Z,78.51
2023-03-28T06:36:56.514Z,80.85
2023-03-28T06:39:27.619Z,79.67
2023-03-28T06:41:57.834Z,79.65
2023-03-28T06:44:33.062Z,77.92
2023-03-28T06:47:13.959Z,78.34
2023-03-28T06:49:41.817Z,77.94
2023-03-28T06:52:28.932Z,78.36
2023-03-28T06:54:59.134Z,78.45
2023-03-28T06:57:26.786Z,78.49
2023-03-28T07:00:07.385Z,77.54
2023-03-28T07:02:54.481Z,77.80
2023-03-28T07:05:21.757Z,77.82
2023-03-28T07:08:21.590Z,77.61
2023-03-28T07:10:49.131Z,78.17
2023-03-28T07:13:16.496Z,78.07
2023-03-28T07:16:06.888Z,78.09
2023-03-28T07:18:35.140Z,77.36
2023-03-28T07:21:14.370Z,76.91
2023-03-28T07:23:42.300Z,76.22
2023-03-28T07:26:13.485Z,77.96
2023-03-28T07:28:41.072Z,77.60
2023-03-28T07:31:08.707Z,76.97
2023-03-28T07:33:38.172Z,77.46
2023-03-28T07:36:16.363Z,77.75
2023-03-28T07:38:48.926Z,77.19
2023-03-28T07:41:18.202Z,76.52
2023-03-28T07:43:45.839Z,76.85
2023-03-28T07:46:15.173Z,77.06
2023-03-28T07:48:43.370Z,77.95
2023-03-28T07:51:11.482Z,77.90
2023-03-28T07:53:39.307Z,78.13
2023-03-28T07:56:11.954Z,76.50
2023-03-28T07:59:14.827Z,75.03
2023-03-28T08:01:45.745Z,76.16
2023-03-28T08:04:14.158Z,76.40
2023-03-28T08:06:58.228Z,76.64
2023-03-28T08:09:25.472Z,75.82
2023-03-28T08:12:03.592Z,75.37
2023-03-28T08:14:30.806Z,75.19
2023-03-28T08:16:58.287Z,73.35
2023-03-28T08:19:25.805Z,76.29
2023-03-28T08:22:12.577Z,75.83
2023-03-28T08:24:52.647Z,75.28
2023-03-28T08:27:22.938Z,75.10
2023-03-28T08:29:53.763Z,74.10
2023-03-28T08:32:21.018Z,74.08
2023-03-28T08:34:48.484Z,74.65
2023-03-28T08:37:18.173Z,73.73
2023-03-28T08:39:48.693Z,72.93
2023-03-28T08:42:36.451Z,72.16
2023-03-28T08:45:04.474Z,73.13
2023-03-28T08:47:33.406Z,73.25
2023-03-28T08:50:14.870Z,71.15
2023-03-28T08:52:43.737Z,73.31
2023-03-28T08:55:28.334Z,70.58
2023-03-28T08:57:56.471Z,73.51
2023-03-28T09:00:31.399Z,70.40
2023-03-28T09:02:59.416Z,72.05
2023-03-28T09:05:38.678Z,71.22
2023-03-28T09:08:29.182Z,70.73
2023-03-28T09:11:09.122Z,70.89
2023-03-28T09:14:00.536Z,69.82
2023-03-28T09:16:52.401Z,71.67
2023-03-28T09:19:44.878Z,71.23
2023-03-28T09:23:11.223Z,72.70
2023-03-28T09:26:25.426Z,72.68
2023-03-28T09:29:21.351Z,71.63
2023-03-28T09:32:57.689Z,72.00
2023-03-28T09:35:28.204Z,70.38
2023-03-28T09:38:05.050Z,69.75
2023-03-28T09:40:35.058Z,72.05
2023-03-28T09:43:59.526Z,71.41
2023-03-28T10:17:45.905Z,71.27
2023-03-28T10:20:24.978Z,70.85
2023-03-28T10:22:57.262Z,69.99
2023-03-28T10:25:42.612Z,69.02
2023-03-28T10:28:17.841Z,69.58
2023-03-28T10:30:54.125Z,69.52
2023-03-28T10:33:28.058Z,70.05
2023-03-28T10:36:30.019Z,69.00
2023-03-28T10:39:00.152Z,70.02
2023-03-28T10:42:05.866Z,69.54
2023-03-28T10:45:00.969Z,69.53
2023-03-28T10:47:31.572Z,70.75
2023-03-28T10:50:03.944Z,71.62
2023-03-28T10:52:47.684Z,69.33
2023-03-28T10:55:26.547Z,69.80
2023-03-28T10:58:25.651Z,69.78
2023-03-28T11:01:08.880Z,70.07
2023-03-28T11:03:50.643Z,69.29
2023-03-28T11:06:26.457Z,69.69
2023-03-28T11:09:08.127Z,70.19
2023-03-28T11:12:27.940Z,69.92
2023-03-28T11:15:09.849Z,70.54
2023-03-28T11:17:45.756Z,70.37
2023-03-28T11:20:22.682Z,71.11
2023-03-28T11:23:10.055Z,71.01
2023-03-28T11:26:17.236Z,71.50
2023-03-28T11:29:43.688Z,70.82
2023-03-28T11:32:45.896Z,70.89
2023-03-28T11:35:29.152Z,71.63
2023-03-28T11:38:02.695Z,70.05
2023-03-28T11:40:37.760Z,70.58
2023-03-28T11:43:13.742Z,70.34
2023-03-28T11:45:51.937Z,70.17
2023-03-28T11:48:55.357Z,70.98
2023-03-28T11:51:36.510Z,70.34
2023-03-28T11:54:16.394Z,71.14
2023-03-28T11:57:02.794Z,71.60
2023-03-28T11:59:43.293Z,72.23
2023-03-28T12:02:35.839Z,72.54
2023-03-28T12:05:19.450Z,72.44
2023-03-28T12:08:10.646Z,72.22
2023-03-28T12:10:43.215Z,72.54
2023-03-28T12:13:41.732Z,73.66
2023-03-28T12:16:17.878Z,74.07
2023-03-28T12:18:50.687Z,73.51
2023-03-28T12:21:41.694Z,73.40
2023-03-28T12:24:38.096Z,73.20
2023-03-28T12:27:33.868Z,75.60
2023-03-28T12:30:21.444Z,76.45
2023-03-28T12:32:56.617Z,76.97
2023-03-28T12:36:10.647Z,77.77
2023-03-28T12:38:57.929Z,78.00
2023-03-28T12:41:40.421Z,79.10
2023-03-28T12:44:12.956Z,78.49
2023-03-28T12:46:55.974Z,79.44
2023-03-28T12:49:46.092Z,79.52
2023-03-28T12:52:28.697Z,79.25
2023-03-28T12:55:03.057Z,79.41
2023-03-28T12:57:48.555Z,79.36
2023-03-28T13:05:17.314Z,80.04
2023-03-28T13:08:14.837Z,79.72
2023-03-28T13:10:57.765Z,80.15
2023-03-28T13:13:44.289Z,82.03
2023-03-28T13:16:21.993Z,80.90
2023-03-28T13:19:06.759Z,81.47
2023-03-28T13:22:00.427Z,83.33
2023-03-28T13:24:36.352Z,83.38
2023-03-28T13:27:30.767Z,83.45
2023-03-28T13:30:07.844Z,84.90
2023-03-28T13:32:40.913Z,85.78
2023-03-28T13:35:28.158Z,87.24
2023-03-28T13:37:55.176Z,88.43
2023-03-28T13:40:50.820Z,87.86
2023-03-28T13:43:36.466Z,89.05
2023-03-28T13:46:18.977Z,88.81
2023-03-28T13:49:13.532Z,89.31
2023-03-28T13:51:45.113Z,89.28
2023-03-28T13:54:12.693Z,89.27
2023-03-28T13:56:44.570Z,88.77
2023-03-28T13:59:18.350Z,88.91
2023-03-28T14:01:47.625Z,89.01
2023-03-28T14:04:26.458Z,90.27
2023-03-28T14:06:55.005Z,89.48
2023-03-28T14:09:32.496Z,90.31
2023-03-28T14:12:05.110Z,91.55
2023-03-28T14:14:48.468Z,91.96
2023-03-28T14:17:18.729Z,89.14
2023-03-28T14:19:54.165Z,89.56
2023-03-28T14:22:26.286Z,88.69
2023-03-28T14:24:58.030Z,89.40
2023-03-28T14:27:27.674Z,90.16
2023-03-28T14:29:56.872Z,91.77
2023-03-28T14:32:33.088Z,91.47
2023-03-28T14:35:30.914Z,91.01
2023-03-28T14:38:00.998Z,90.20
2023-03-28T14:40:34.734Z,89.00
2023-03-28T14:43:04.575Z,87.71
2023-03-28T14:45:37.665Z,87.91
2023-03-28T14:48:14.329Z,86.67
2023-03-28T14:50:42.045Z,86.54
2023-03-28T14:53:17.295Z,86.64
2023-03-28T14:55:46.616Z,86.84
2023-03-28T14:58:14.218Z,87.09
2023-03-28T15:00:44.074Z,87.30
2023-03-28T15:03:32.265Z,86.53
2023-03-28T15:06:01.127Z,86.95
2023-03-28T15:08:37.025Z,87.08
2023-03-28T15:11:33.750Z,86.83
2023-03-28T15:14:21.948Z,86.89
2023-03-28T15:16:49.247Z,86.41
2023-03-28T15:19:28.466Z,86.69
2023-03-28T15:21:59.021Z,86.94
2023-03-28T15:24:28.345Z,86.44
2023-03-28T15:27:01.734Z,87.07
2023-03-28T15:29:33.551Z,87.58
2023-03-28T15:32:16.833Z,88.01
2023-03-28T15:34:46.718Z,87.92
2023-03-28T15:37:18.663Z,88.09
2023-03-28T15:39:49.575Z,88.07
2023-03-28T15:42:19.677Z,87.73
2023-03-28T15:44:58.787Z,87.50
2023-03-28T15:47:34.478Z,87.77
2023-03-28T15:50:07.642Z,88.63
2023-03-28T15:52:35.887Z,87.94
2023-03-28T15:55:05.831Z,88.18
2023-03-28T15:57:33.203Z,87.96
2023-03-28T16:00:01.311Z,87.51
2023-03-28T16:02:28.453Z,88.06
2023-03-28T16:05:02.460Z,88.03
2023-03-28T16:07:35.288Z,87.95
2023-03-28T16:10:02.482Z,88.04
2023-03-28T16:12:31.362Z,87.53
2023-03-28T16:15:19.733Z,86.75
2023-03-28T16:17:56.209Z,86.40
2023-03-28T16:20:52.296Z,86.55
2023-03-28T16:23:19.333Z,87.31
2023-03-28T16:25:46.790Z,86.25
2023-03-28T16:28:18.509Z,87.76
2023-03-28T16:30:46.299Z,88.47
2023-03-28T16:33:14.161Z,89.12
2023-03-28T16:35:41.294Z,89.35
2023-03-28T16:38:11.775Z,89.07
2023-03-28T16:40:39.040Z,89.28
2023-03-28T16:43:08.022Z,87.95
2023-03-28T16:45:35.626Z,88.88
2023-03-28T16:48:02.898Z,88.84
2023-03-28T16:50:30.128Z,87.48
2023-03-28T16:52:57.131Z,86.61
2023-03-28T16:55:24.066Z,86.23
2023-03-28T16:57:51.356Z,86.87
2023-03-28T17:00:23.062Z,86.07
2023-03-28T17:02:50.236Z,85.00
2023-03-28T17:05:17.676Z,84.67
2023-03-28T17:07:44.768Z,84.41
2023-03-28T17:10:12.241Z,83.89
2023-03-28T17:12:39.187Z,84.37
2023-03-28T17:15:06.817Z,84.28
2023-03-28T17:17:33.916Z,84.84
2023-03-28T17:20:01.428Z,84.00
2023-03-28T17:22:28.490Z,83.23
2023-03-28T17:24:57.350Z,82.13
2023-03-28T17:27:24.394Z,80.92
2023-03-28T17:29:51.938Z,80.31
2023-03-28T17:32:19.086Z,79.37
2023-03-28T17:34:46.449Z,79.69
2023-03-28T17:37:13.647Z,79.60
2023-03-28T17:39:41.056Z,78.61
2023-03-28T17:42:09.199Z,79.99
2023-03-28T17:44:36.275Z,79.14
2023-03-28T17:47:03.419Z,78.30
2023-03-28T17:49:30.495Z,78.77
2023-03-28T17:51:57.573Z,79.73
2023-03-28T17:54:24.719Z,79.72
2023-03-28T17:56:52.631Z,80.43
2023-03-28T17:59:20.046Z,80.64
2023-03-28T18:01:47.227Z,80.03
2023-03-28T18:04:16.283Z,81.18
2023-03-28T18:07:16.221Z,82.49
2023-03-28T18:09:44.993Z,82.13
2023-03-28T18:12:12.827Z,82.65
2023-03-28T18:14:40.034Z,84.10
2023-03-28T18:17:07.007Z,84.56
2023-03-28T18:19:34.053Z,85.03
2023-03-28T18:22:01.835Z,86.65
2023-03-28T18:24:28.957Z,86.82
2023-03-28T18:26:56.022Z,87.11
2023-03-28T18:29:23.306Z,87.14
2023-03-28T18:31:50.473Z,88.46
2023-03-28T18:34:17.618Z,89.29
2023-03-28T18:36:45.626Z,88.81
2023-03-28T18:39:12.747Z,89.90
2023-03-28T18:41:40.046Z,91.56
2023-03-28T18:44:07.168Z,92.19
2023-03-28T18:46:34.598Z,92.60
2023-03-28T18:49:01.955Z,92.56
2023-03-28T18:51:29.172Z,93.46
2023-03-28T18:53:56.831Z,93.62
2023-03-28T18:56:23.924Z,93.40
2023-03-28T18:58:51.052Z,93.68
2023-03-28T19:01:18.901Z,93.64
2023-03-28T19:03:47.211Z,94.63
2023-03-28T19:06:15.826Z,93.63
2023-03-28T19:08:44.893Z,94.93
2023-03-28T19:11:14.859Z,94.39
2023-03-28T19:13:42.646Z,94.15
2023-03-28T19:16:15.181Z,94.47
2023-03-28T19:18:44.564Z,93.32
2023-03-28T19:21:12.131Z,94.24
2023-03-28T19:23:39.496Z,94.13
2023-03-28T19:26:08.332Z,94.32
2023-03-28T19:28:36.081Z,94.77
2023-03-28T19:31:06.559Z,94.79
2023-03-28T19:33:34.068Z,94.64
2023-03-28T19:36:01.414Z,94.92
2023-03-28T19:38:31.056Z,94.82
2023-03-28T19:41:03.430Z,94.79
2023-03-28T19:43:31.183Z,94.33
2023-03-28T19:46:07.221Z,93.63
2023-03-28T19:48:35.105Z,93.40
2023-03-28T19:51:02.316Z,90.62
2023-03-28T19:53:29.439Z,90.52
2023-03-28T19:55:59.453Z,88.46
2023-03-28T19:58:28.341Z,87.91
2023-03-28T20:00:58.896Z,87.89
2023-03-28T20:03:26.023Z,87.98
2023-03-28T20:05:53.414Z,89.00
2023-03-28T20:08:21.675Z,89.73
2023-03-28T20:10:52.645Z,89.74
2023-03-28T20:13:19.918Z,89.82
2023-03-28T20:15:47.477Z,89.95
2023-03-28T20:18:20.181Z,88.46
2023-03-28T20:20:58.587Z,88.93
2023-03-28T20:23:27.557Z,88.31
2023-03-28T20:25:55.517Z,88.65
2023-03-28T20:28:26.447Z,88.10
2023-03-28T20:30:54.359Z,88.60
2023-03-28T20:33:21.915Z,87.90
2023-03-28T20:35:58.891Z,88.81
2023-03-28T20:38:28.043Z,88.96
2023-03-28T20:40:55.048Z,89.80
2023-03-28T20:43:24.232Z,90.83
2023-03-28T20:45:53.969Z,90.82
2023-03-28T20:48:34.487Z,90.82
2023-03-28T20:51:03.374Z,91.91
2023-03-28T20:53:31.274Z,93.02
2023-03-28T20:56:04.134Z,93.32
2023-03-28T20:58:32.545Z,94.17
2023-03-28T21:01:01.496Z,95.07
2023-03-28T21:03:39.525Z,94.81
2023-03-28T21:06:07.825Z,94.75
2023-03-28T21:08:36.474Z,94.63
2023-03-28T21:11:03.885Z,95.19
2023-03-28T21:13:31.366Z,94.95
2023-03-28T21:15:58.639Z,95.23
2023-03-28T21:18:26.222Z,94.89
2023-03-28T21:20:53.264Z,94.27
2023-03-28T21:23:20.324Z,93.70
2023-03-28T21:25:52.137Z,93.17
2023-03-28T21:28:19.812Z,91.45
2023-03-28T21:30:57.609Z,90.71
2023-03-28T21:33:24.788Z,88.54
2023-03-28T21:35:52.435Z,86.79
2023-03-28T21:38:19.711Z,85.32
2023-03-28T21:40:48.038Z,83.59
2023-03-28T21:43:15.977Z,80.69
2023-03-28T21:45:49.621Z,79.06
2023-03-28T21:48:17.198Z,80.42
2023-03-28T21:50:59.304Z,80.79
2023-03-28T21:53:28.902Z,81.07
2023-03-28T21:55:56.558Z,79.12
2023-03-28T21:58:23.993Z,79.10
2023-03-28T22:00:51.125Z,78.21
2023-03-28T22:03:19.104Z,78.63
2023-03-28T22:05:46.451Z,77.20
2023-03-28T22:08:13.799Z,74.10
2023-03-28T22:10:46.704Z,72.82
2023-03-28T22:13:14.324Z,73.53
2023-03-28T22:15:41.890Z,71.53
2023-03-28T22:18:09.671Z,73.46
2023-03-28T22:20:39.323Z,77.63
2023-03-28T22:23:07.236Z,80.82
2023-03-28T22:25:38.753Z,84.11
2023-03-28T22:28:09.440Z,87.80
2023-03-28T22:30:39.251Z,89.38
2023-03-28T22:33:09.826Z,90.99
2023-03-28T22:35:38.389Z,89.27
2023-03-28T22:38:05.882Z,88.75
2023-03-28T22:40:33.377Z,88.97
2023-03-28T22:43:00.685Z,88.64
2023-03-28T22:45:28.055Z,88.85
2023-03-28T22:47:58.495Z,89.84
2023-03-28T22:50:26.138Z,89.19
2023-03-28T22:52:53.287Z,88.63
2023-03-28T22:55:23.052Z,87.25
2023-03-28T22:57:51.776Z,86.20
2023-03-28T23:00:22.352Z,86.81
2023-03-28T23:02:50.462Z,86.68
2023-03-28T23:05:18.011Z,85.35
2023-03-28T23:07:45.046Z,85.06
2023-03-28T23:10:18.159Z,87.31
2023-03-28T23:12:46.168Z,87.11
2023-03-28T23:15:13.596Z,88.77
2023-03-28T23:17:40.871Z,88.62
2023-03-28T23:20:15.980Z,87.30
2023-03-28T23:22:45.925Z,85.46
2023-03-28T23:25:15.049Z,84.79
2023-03-28T23:27:43.247Z,84.99
2023-03-28T23:30:11.926Z,85.04
2023-03-28T23:32:39.594Z,82.65
2023-03-28T23:35:07.473Z,82.29
2023-03-28T23:37:38.408Z,83.09
2023-03-28T23:40:10.685Z,85.47
2023-03-28T23:42:37.878Z,85.93
2023-03-28T23:45:05.240Z,86.77
2023-03-28T23:47:32.338Z,88.02
2023-03-28T23:49:59.371Z,87.94
2023-03-28T23:52:26.478Z,88.93
2023-03-28T23:54:53.597Z,89.58
2023-03-28T23:57:20.783Z,89.96
2023-03-28T23:59:47.839Z,90.47
